sensor_id;sensor_type;location;lat;lon;timestamp;temperature;humidity
74946;HTU21D;63509;45.250;38.102;2023-11-19T00:00:34;8.94;74.92
74946;HTU21D;63509;45.250;38.102;2023-11-19T00:03:01;8.94;74.95
74946;HTU21D;63509;45.250;38.102;2023-11-19T00:05:27;8.93;74.99
74946;HTU21D;63509;45.250;38.102;2023-11-19T00:07:54;8.94;74.99
74946;HTU21D;63509;45.250;38.102;2023-11-19T00:10:20;8.93;74.99
74946;HTU21D;63509;45.250;38.102;2023-11-19T00:12:48;8.93;75.01
74946;HTU21D;63509;45.250;38.102;2023-11-19T00:15:15;8.94;75.03
74946;HTU21D;63509;45.250;38.102;2023-11-19T00:17:43;8.97;75.02
74946;HTU21D;63509;45.250;38.102;2023-11-19T00:20:14;8.96;74.97
74946;HTU21D;63509;45.250;38.102;2023-11-19T00:22:41;8.96;74.98
74946;HTU21D;63509;45.250;38.102;2023-11-19T00:25:10;8.98;74.96
74946;HTU21D;63509;45.250;38.102;2023-11-19T00:27:36;8.97;74.96
74946;HTU21D;63509;45.250;38.102;2023-11-19T00:30:06;8.97;74.99
74946;HTU21D;63509;45.250;38.102;2023-11-19T00:32:33;8.98;74.98
74946;HTU21D;63509;45.250;38.102;2023-11-19T00:34:59;8.98;74.92
74946;HTU21D;63509;45.250;38.102;2023-11-19T00:37:26;9.00;74.91
74946;HTU21D;63509;45.250;38.102;2023-11-19T00:39:52;8.98;74.97
74946;HTU21D;63509;45.250;38.102;2023-11-19T00:42:18;9.00;74.96
74946;HTU21D;63509;45.250;38.102;2023-11-19T00:44:44;8.98;74.96
74946;HTU21D;63509;45.250;38.102;2023-11-19T00:47:12;8.97;74.96
74946;HTU21D;63509;45.250;38.102;2023-11-19T00:49:38;8.98;74.98
74946;HTU21D;63509;45.250;38.102;2023-11-19T00:52:04;9.00;74.98
74946;HTU21D;63509;45.250;38.102;2023-11-19T00:54:30;9.01;74.99
74946;HTU21D;63509;45.250;38.102;2023-11-19T00:56:56;9.03;74.99
74946;HTU21D;63509;45.250;38.102;2023-11-19T00:59:22;9.03;74.96
74946;HTU21D;63509;45.250;38.102;2023-11-19T01:01:48;9.03;74.95
74946;HTU21D;63509;45.250;38.102;2023-11-19T01:04:15;9.03;74.95
74946;HTU21D;63509;45.250;38.102;2023-11-19T01:06:40;9.03;74.96
74946;HTU21D;63509;45.250;38.102;2023-11-19T01:09:08;9.05;74.96
74946;HTU21D;63509;45.250;38.102;2023-11-19T01:11:35;9.05;74.95
74946;HTU21D;63509;45.250;38.102;2023-11-19T01:14:01;9.06;74.96
74946;HTU21D;63509;45.250;38.102;2023-11-19T01:16:27;9.08;74.98
74946;HTU21D;63509;45.250;38.102;2023-11-19T01:18:53;9.11;74.93
74946;HTU21D;63509;45.250;38.102;2023-11-19T01:21:19;9.14;74.93
74946;HTU21D;63509;45.250;38.102;2023-11-19T01:23:46;9.17;74.88
74946;HTU21D;63509;45.250;38.102;2023-11-19T01:26:12;9.17;74.87
74946;HTU21D;63509;45.250;38.102;2023-11-19T01:28:39;9.18;74.88
74946;HTU21D;63509;45.250;38.102;2023-11-19T01:31:05;9.19;74.86
74946;HTU21D;63509;45.250;38.102;2023-11-19T01:33:38;9.19;74.85
74946;HTU21D;63509;45.250;38.102;2023-11-19T01:36:05;9.17;74.86
74946;HTU21D;63509;45.250;38.102;2023-11-19T01:38:32;9.19;74.88
74946;HTU21D;63509;45.250;38.102;2023-11-19T01:40:57;9.17;74.87
74946;HTU21D;63509;45.250;38.102;2023-11-19T01:43:41;9.18;74.92
74946;HTU21D;63509;45.250;38.102;2023-11-19T01:46:08;9.17;74.94
74946;HTU21D;63509;45.250;38.102;2023-11-19T01:48:43;9.18;74.96
74946;HTU21D;63509;45.250;38.102;2023-11-19T01:51:12;9.19;74.94
74946;HTU21D;63509;45.250;38.102;2023-11-19T01:53:39;9.18;74.94
74946;HTU21D;63509;45.250;38.102;2023-11-19T01:56:08;9.17;74.99
74946;HTU21D;63509;45.250;38.102;2023-11-19T01:58:36;9.14;74.99
74946;HTU21D;63509;45.250;38.102;2023-11-19T02:01:02;9.15;74.99
74946;HTU21D;63509;45.250;38.102;2023-11-19T02:03:33;9.15;75.02
74946;HTU21D;63509;45.250;38.102;2023-11-19T02:06:00;9.14;75.04
74946;HTU21D;63509;45.250;38.102;2023-11-19T02:08:26;9.12;75.03
74946;HTU21D;63509;45.250;38.102;2023-11-19T02:10:52;9.11;75.05
74946;HTU21D;63509;45.250;38.102;2023-11-19T02:13:22;9.12;75.09
74946;HTU21D;63509;45.250;38.102;2023-11-19T02:15:49;9.11;75.09
74946;HTU21D;63509;45.250;38.102;2023-11-19T02:18:23;9.10;75.12
74946;HTU21D;63509;45.250;38.102;2023-11-19T02:20:52;9.09;75.16
74946;HTU21D;63509;45.250;38.102;2023-11-19T02:23:19;9.10;75.14
74946;HTU21D;63509;45.250;38.102;2023-11-19T02:28:26;9.11;75.15
74946;HTU21D;63509;45.250;38.102;2023-11-19T02:30:52;9.11;75.16
74946;HTU21D;63509;45.250;38.102;2023-11-19T02:33:19;9.10;75.15
74946;HTU21D;63509;45.250;38.102;2023-11-19T02:35:45;9.11;75.15
74946;HTU21D;63509;45.250;38.102;2023-11-19T02:38:11;9.10;75.14
74946;HTU21D;63509;45.250;38.102;2023-11-19T02:40:39;9.09;75.15
74946;HTU21D;63509;45.250;38.102;2023-11-19T02:43:05;9.08;75.18
74946;HTU21D;63509;45.250;38.102;2023-11-19T02:45:32;9.09;75.18
74946;HTU21D;63509;45.250;38.102;2023-11-19T02:47:58;9.08;75.21
74946;HTU21D;63509;45.250;38.102;2023-11-19T02:50:28;9.07;75.22
74946;HTU21D;63509;45.250;38.102;2023-11-19T02:52:55;9.05;75.25
74946;HTU21D;63509;45.250;38.102;2023-11-19T02:55:22;9.04;75.29
74946;HTU21D;63509;45.250;38.102;2023-11-19T02:57:50;9.01;75.32
74946;HTU21D;63509;45.250;38.102;2023-11-19T03:00:17;8.98;75.38
74946;HTU21D;63509;45.250;38.102;2023-11-19T03:02:44;8.96;75.44
74946;HTU21D;63509;45.250;38.102;2023-11-19T03:05:14;8.92;75.47
74946;HTU21D;63509;45.250;38.102;2023-11-19T03:07:43;8.89;75.54
74946;HTU21D;63509;45.250;38.102;2023-11-19T03:10:12;8.88;75.60
74946;HTU21D;63509;45.250;38.102;2023-11-19T03:12:42;8.85;75.62
74946;HTU21D;63509;45.250;38.102;2023-11-19T03:15:09;8.81;75.69
74946;HTU21D;63509;45.250;38.102;2023-11-19T03:17:44;8.77;75.79
74946;HTU21D;63509;45.250;38.102;2023-11-19T03:20:11;8.75;75.83
74946;HTU21D;63509;45.250;38.102;2023-11-19T03:22:44;8.72;75.89
74946;HTU21D;63509;45.250;38.102;2023-11-19T03:25:10;8.67;75.95
74946;HTU21D;63509;45.250;38.102;2023-11-19T03:27:37;8.65;75.99
74946;HTU21D;63509;45.250;38.102;2023-11-19T03:30:08;8.64;76.07
74946;HTU21D;63509;45.250;38.102;2023-11-19T03:32:35;8.61;76.14
74946;HTU21D;63509;45.250;38.102;2023-11-19T03:35:05;8.60;76.20
74946;HTU21D;63509;45.250;38.102;2023-11-19T03:37:33;8.58;76.24
74946;HTU21D;63509;45.250;38.102;2023-11-19T03:39:59;8.59;76.28
74946;HTU21D;63509;45.250;38.102;2023-11-19T03:42:26;8.61;76.31
74946;HTU21D;63509;45.250;38.102;2023-11-19T03:44:53;8.62;76.34
74946;HTU21D;63509;45.250;38.102;2023-11-19T03:47:20;8.62;76.34
74946;HTU21D;63509;45.250;38.102;2023-11-19T03:49:49;8.64;76.35
74946;HTU21D;63509;45.250;38.102;2023-11-19T03:52:18;8.64;76.37
74946;HTU21D;63509;45.250;38.102;2023-11-19T03:54:44;8.64;76.40
74946;HTU21D;63509;45.250;38.102;2023-11-19T03:57:14;8.65;76.43
74946;HTU21D;63509;45.250;38.102;2023-11-19T03:59:41;8.66;76.44
74946;HTU21D;63509;45.250;38.102;2023-11-19T04:02:07;8.67;76.44
74946;HTU21D;63509;45.250;38.102;2023-11-19T04:04:33;8.68;76.45
74946;HTU21D;63509;45.250;38.102;2023-11-19T04:07:00;8.68;76.47
74946;HTU21D;63509;45.250;38.102;2023-11-19T04:09:28;8.68;76.52
74946;HTU21D;63509;45.250;38.102;2023-11-19T04:11:56;8.68;76.55
74946;HTU21D;63509;45.250;38.102;2023-11-19T04:14:22;8.68;76.59
74946;HTU21D;63509;45.250;38.102;2023-11-19T04:16:48;8.68;76.62
74946;HTU21D;63509;45.250;38.102;2023-11-19T04:19:14;8.72;76.65
74946;HTU21D;63509;45.250;38.102;2023-11-19T04:21:40;8.72;76.66
74946;HTU21D;63509;45.250;38.102;2023-11-19T04:24:11;8.74;76.68
74946;HTU21D;63509;45.250;38.102;2023-11-19T04:26:41;8.77;76.68
74946;HTU21D;63509;45.250;38.102;2023-11-19T04:29:09;8.79;76.69
74946;HTU21D;63509;45.250;38.102;2023-11-19T04:31:36;8.80;76.61
74946;HTU21D;63509;45.250;38.102;2023-11-19T04:34:02;8.80;76.59
74946;HTU21D;63509;45.250;38.102;2023-11-19T04:36:28;8.79;76.62
74946;HTU21D;63509;45.250;38.102;2023-11-19T04:38:55;8.80;76.68
74946;HTU21D;63509;45.250;38.102;2023-11-19T04:41:21;8.80;76.73
74946;HTU21D;63509;45.250;38.102;2023-11-19T04:43:47;8.82;76.78
74946;HTU21D;63509;45.250;38.102;2023-11-19T04:46:13;8.85;76.76
74946;HTU21D;63509;45.250;38.102;2023-11-19T04:48:39;8.83;76.79
74946;HTU21D;63509;45.250;38.102;2023-11-19T04:51:05;8.83;76.82
74946;HTU21D;63509;45.250;38.102;2023-11-19T04:53:31;8.86;76.83
74946;HTU21D;63509;45.250;38.102;2023-11-19T04:55:57;8.86;76.86
74946;HTU21D;63509;45.250;38.102;2023-11-19T04:58:28;8.87;76.87
74946;HTU21D;63509;45.250;38.102;2023-11-19T05:00:54;8.87;76.86
74946;HTU21D;63509;45.250;38.102;2023-11-19T05:03:22;8.86;76.91
74946;HTU21D;63509;45.250;38.102;2023-11-19T05:05:49;8.87;76.91
74946;HTU21D;63509;45.250;38.102;2023-11-19T05:08:14;8.88;76.92
74946;HTU21D;63509;45.250;38.102;2023-11-19T05:10:41;8.86;76.90
74946;HTU21D;63509;45.250;38.102;2023-11-19T05:13:07;8.83;76.91
74946;HTU21D;63509;45.250;38.102;2023-11-19T05:15:33;8.80;76.94
74946;HTU21D;63509;45.250;38.102;2023-11-19T05:17:59;8.76;76.98
74946;HTU21D;63509;45.250;38.102;2023-11-19T05:20:25;8.73;76.97
74946;HTU21D;63509;45.250;38.102;2023-11-19T05:22:51;8.70;77.03
74946;HTU21D;63509;45.250;38.102;2023-11-19T05:25:20;8.66;77.08
74946;HTU21D;63509;45.250;38.102;2023-11-19T05:27:48;8.62;77.07
74946;HTU21D;63509;45.250;38.102;2023-11-19T05:30:14;8.60;77.14
74946;HTU21D;63509;45.250;38.102;2023-11-19T05:32:41;8.57;77.14
74946;HTU21D;63509;45.250;38.102;2023-11-19T05:35:07;8.52;77.15
74946;HTU21D;63509;45.250;38.102;2023-11-19T05:37:34;8.49;77.20
74946;HTU21D;63509;45.250;38.102;2023-11-19T05:40:01;8.45;77.23
74946;HTU21D;63509;45.250;38.102;2023-11-19T05:42:29;8.44;77.20
74946;HTU21D;63509;45.250;38.102;2023-11-19T05:44:58;8.39;77.17
74946;HTU21D;63509;45.250;38.102;2023-11-19T05:47:24;8.37;77.21
74946;HTU21D;63509;45.250;38.102;2023-11-19T05:49:50;8.35;77.30
74946;HTU21D;63509;45.250;38.102;2023-11-19T05:52:16;8.34;77.33
74946;HTU21D;63509;45.250;38.102;2023-11-19T05:54:43;8.33;77.34
74946;HTU21D;63509;45.250;38.102;2023-11-19T05:57:09;8.33;77.34
74946;HTU21D;63509;45.250;38.102;2023-11-19T05:59:37;8.33;77.34
74946;HTU21D;63509;45.250;38.102;2023-11-19T06:02:04;8.34;77.33
74946;HTU21D;63509;45.250;38.102;2023-11-19T06:04:30;8.32;77.35
74946;HTU21D;63509;45.250;38.102;2023-11-19T06:06:56;8.32;77.34
74946;HTU21D;63509;45.250;38.102;2023-11-19T06:09:22;8.34;77.34
74946;HTU21D;63509;45.250;38.102;2023-11-19T06:11:51;8.37;77.32
74946;HTU21D;63509;45.250;38.102;2023-11-19T06:14:20;8.39;77.30
74946;HTU21D;63509;45.250;38.102;2023-11-19T06:16:46;8.41;77.27
74946;HTU21D;63509;45.250;38.102;2023-11-19T06:19:12;8.42;77.24
74946;HTU21D;63509;45.250;38.102;2023-11-19T06:21:38;8.43;77.23
74946;HTU21D;63509;45.250;38.102;2023-11-19T06:24:04;8.43;77.22
74946;HTU21D;63509;45.250;38.102;2023-11-19T06:26:30;8.43;77.21
74946;HTU21D;63509;45.250;38.102;2023-11-19T06:29:00;8.44;77.24
74946;HTU21D;63509;45.250;38.102;2023-11-19T06:31:26;8.45;77.27
74946;HTU21D;63509;45.250;38.102;2023-11-19T06:33:54;8.45;77.28
74946;HTU21D;63509;45.250;38.102;2023-11-19T06:36:21;8.46;77.30
74946;HTU21D;63509;45.250;38.102;2023-11-19T06:38:47;8.45;77.33
74946;HTU21D;63509;45.250;38.102;2023-11-19T06:41:13;8.47;77.37
74946;HTU21D;63509;45.250;38.102;2023-11-19T06:43:39;8.50;77.34
74946;HTU21D;63509;45.250;38.102;2023-11-19T06:46:05;8.50;77.34
74946;HTU21D;63509;45.250;38.102;2023-11-19T06:48:34;8.51;77.34
74946;HTU21D;63509;45.250;38.102;2023-11-19T06:51:00;8.50;77.35
74946;HTU21D;63509;45.250;38.102;2023-11-19T06:53:26;8.51;77.40
74946;HTU21D;63509;45.250;38.102;2023-11-19T06:55:54;8.52;77.41
74946;HTU21D;63509;45.250;38.102;2023-11-19T06:58:20;8.51;77.41
74946;HTU21D;63509;45.250;38.102;2023-11-19T07:00:46;8.53;77.46
74946;HTU21D;63509;45.250;38.102;2023-11-19T07:03:14;8.53;77.42
74946;HTU21D;63509;45.250;38.102;2023-11-19T07:05:41;8.55;77.44
74946;HTU21D;63509;45.250;38.102;2023-11-19T07:08:07;8.52;77.46
74946;HTU21D;63509;45.250;38.102;2023-11-19T07:10:33;8.52;77.48
74946;HTU21D;63509;45.250;38.102;2023-11-19T07:12:59;8.52;77.49
74946;HTU21D;63509;45.250;38.102;2023-11-19T07:15:26;8.49;77.53
74946;HTU21D;63509;45.250;38.102;2023-11-19T07:17:52;8.50;77.55
74946;HTU21D;63509;45.250;38.102;2023-11-19T07:20:20;8.48;77.58
74946;HTU21D;63509;45.250;38.102;2023-11-19T07:22:46;8.49;77.60
74946;HTU21D;63509;45.250;38.102;2023-11-19T07:25:13;8.51;77.64
74946;HTU21D;63509;45.250;38.102;2023-11-19T07:27:39;8.52;77.63
74946;HTU21D;63509;45.250;38.102;2023-11-19T07:30:06;8.56;77.66
74946;HTU21D;63509;45.250;38.102;2023-11-19T07:32:35;8.59;77.60
74946;HTU21D;63509;45.250;38.102;2023-11-19T07:35:02;8.59;77.56
74946;HTU21D;63509;45.250;38.102;2023-11-19T07:37:28;8.59;77.53
74946;HTU21D;63509;45.250;38.102;2023-11-19T07:39:54;8.57;77.56
74946;HTU21D;63509;45.250;38.102;2023-11-19T07:42:20;8.55;77.57
74946;HTU21D;63509;45.250;38.102;2023-11-19T07:44:46;8.52;77.57
74946;HTU21D;63509;45.250;38.102;2023-11-19T07:47:12;8.49;77.55
74946;HTU21D;63509;45.250;38.102;2023-11-19T07:49:38;8.47;77.56
74946;HTU21D;63509;45.250;38.102;2023-11-19T07:52:05;8.43;77.63
74946;HTU21D;63509;45.250;38.102;2023-11-19T07:54:31;8.42;77.67
74946;HTU21D;63509;45.250;38.102;2023-11-19T07:56:57;8.42;77.72
74946;HTU21D;63509;45.250;38.102;2023-11-19T07:59:23;8.41;77.76
74946;HTU21D;63509;45.250;38.102;2023-11-19T08:01:49;8.43;77.78
74946;HTU21D;63509;45.250;38.102;2023-11-19T08:04:15;8.42;77.79
74946;HTU21D;63509;45.250;38.102;2023-11-19T08:06:41;8.43;77.83
74946;HTU21D;63509;45.250;38.102;2023-11-19T08:09:07;8.45;77.85
74946;HTU21D;63509;45.250;38.102;2023-11-19T08:11:43;8.50;77.83
74946;HTU21D;63509;45.250;38.102;2023-11-19T08:14:09;8.50;77.82
74946;HTU21D;63509;45.250;38.102;2023-11-19T08:16:35;8.53;77.83
74946;HTU21D;63509;45.250;38.102;2023-11-19T08:19:03;8.55;77.82
74946;HTU21D;63509;45.250;38.102;2023-11-19T08:21:29;8.57;77.81
74946;HTU21D;63509;45.250;38.102;2023-11-19T08:23:55;8.57;77.81
74946;HTU21D;63509;45.250;38.102;2023-11-19T08:26:21;8.56;77.85
74946;HTU21D;63509;45.250;38.102;2023-11-19T08:28:47;8.57;77.80
74946;HTU21D;63509;45.250;38.102;2023-11-19T08:31:13;8.59;77.82
74946;HTU21D;63509;45.250;38.102;2023-11-19T08:33:39;8.56;77.82
74946;HTU21D;63509;45.250;38.102;2023-11-19T08:36:06;8.55;77.82
74946;HTU21D;63509;45.250;38.102;2023-11-19T08:38:32;8.51;77.85
74946;HTU21D;63509;45.250;38.102;2023-11-19T08:40:58;8.50;77.89
74946;HTU21D;63509;45.250;38.102;2023-11-19T08:43:26;8.49;77.89
74946;HTU21D;63509;45.250;38.102;2023-11-19T08:45:52;8.49;77.92
74946;HTU21D;63509;45.250;38.102;2023-11-19T08:48:18;8.50;77.89
74946;HTU21D;63509;45.250;38.102;2023-11-19T08:50:44;8.48;77.91
74946;HTU21D;63509;45.250;38.102;2023-11-19T08:53:10;8.48;77.93
74946;HTU21D;63509;45.250;38.102;2023-11-19T08:55:37;8.48;77.92
74946;HTU21D;63509;45.250;38.102;2023-11-19T08:58:03;8.49;77.92
74946;HTU21D;63509;45.250;38.102;2023-11-19T09:00:29;8.48;77.92
74946;HTU21D;63509;45.250;38.102;2023-11-19T09:02:55;8.48;77.92
74946;HTU21D;63509;45.250;38.102;2023-11-19T09:05:21;8.46;77.97
74946;HTU21D;63509;45.250;38.102;2023-11-19T09:07:47;8.46;77.99
74946;HTU21D;63509;45.250;38.102;2023-11-19T09:10:15;8.45;78.03
74946;HTU21D;63509;45.250;38.102;2023-11-19T09:12:42;8.45;78.04
74946;HTU21D;63509;45.250;38.102;2023-11-19T09:15:08;8.43;78.06
74946;HTU21D;63509;45.250;38.102;2023-11-19T09:17:36;8.43;78.08
74946;HTU21D;63509;45.250;38.102;2023-11-19T09:20:02;8.44;78.11
74946;HTU21D;63509;45.250;38.102;2023-11-19T09:22:28;8.44;78.13
74946;HTU21D;63509;45.250;38.102;2023-11-19T09:24:54;8.42;78.09
74946;HTU21D;63509;45.250;38.102;2023-11-19T09:27:22;8.42;78.09
74946;HTU21D;63509;45.250;38.102;2023-11-19T09:29:48;8.41;78.17
74946;HTU21D;63509;45.250;38.102;2023-11-19T09:32:15;8.42;78.22
74946;HTU21D;63509;45.250;38.102;2023-11-19T09:34:41;8.42;78.25
74946;HTU21D;63509;45.250;38.102;2023-11-19T09:37:07;8.42;78.27
74946;HTU21D;63509;45.250;38.102;2023-11-19T09:39:34;8.44;78.27
74946;HTU21D;63509;45.250;38.102;2023-11-19T09:42:00;8.45;78.31
74946;HTU21D;63509;45.250;38.102;2023-11-19T09:44:26;8.43;78.33
74946;HTU21D;63509;45.250;38.102;2023-11-19T09:46:53;8.43;78.36
74946;HTU21D;63509;45.250;38.102;2023-11-19T09:49:21;8.44;78.38
74946;HTU21D;63509;45.250;38.102;2023-11-19T09:51:49;8.46;78.37
74946;HTU21D;63509;45.250;38.102;2023-11-19T09:54:15;8.46;78.30
74946;HTU21D;63509;45.250;38.102;2023-11-19T09:56:42;8.45;78.37
74946;HTU21D;63509;45.250;38.102;2023-11-19T09:59:08;8.48;78.36
74946;HTU21D;63509;45.250;38.102;2023-11-19T10:01:38;8.49;78.36
74946;HTU21D;63509;45.250;38.102;2023-11-19T10:04:05;8.49;78.40
74946;HTU21D;63509;45.250;38.102;2023-11-19T10:06:32;8.52;78.47
74946;HTU21D;63509;45.250;38.102;2023-11-19T10:08:58;8.55;78.44
74946;HTU21D;63509;45.250;38.102;2023-11-19T10:11:25;8.59;78.41
74946;HTU21D;63509;45.250;38.102;2023-11-19T10:13:53;8.62;78.41
74946;HTU21D;63509;45.250;38.102;2023-11-19T10:16:19;8.64;78.38
74946;HTU21D;63509;45.250;38.102;2023-11-19T10:18:47;8.63;78.40
74946;HTU21D;63509;45.250;38.102;2023-11-19T10:21:21;8.63;78.40
74946;HTU21D;63509;45.250;38.102;2023-11-19T10:23:57;8.65;78.44
74946;HTU21D;63509;45.250;38.102;2023-11-19T10:26:51;8.64;78.42
74946;HTU21D;63509;45.250;38.102;2023-11-19T10:29:20;8.64;78.42
74946;HTU21D;63509;45.250;38.102;2023-11-19T10:31:56;8.63;78.47
74946;HTU21D;63509;45.250;38.102;2023-11-19T10:34:26;8.62;78.47
74946;HTU21D;63509;45.250;38.102;2023-11-19T10:36:53;8.62;78.53
74946;HTU21D;63509;45.250;38.102;2023-11-19T10:39:19;8.61;78.56
74946;HTU21D;63509;45.250;38.102;2023-11-19T10:41:46;8.61;78.61
74946;HTU21D;63509;45.250;38.102;2023-11-19T10:44:33;8.58;78.66
74946;HTU21D;63509;45.250;38.102;2023-11-19T10:47:01;8.57;78.69
74946;HTU21D;63509;45.250;38.102;2023-11-19T10:49:34;8.58;78.75
74946;HTU21D;63509;45.250;38.102;2023-11-19T10:52:01;8.59;78.82
74946;HTU21D;63509;45.250;38.102;2023-11-19T10:54:29;8.57;78.88
74946;HTU21D;63509;45.250;38.102;2023-11-19T10:56:59;8.57;78.88
74946;HTU21D;63509;45.250;38.102;2023-11-19T10:59:30;8.58;78.94
74946;HTU21D;63509;45.250;38.102;2023-11-19T11:01:57;8.63;78.96
74946;HTU21D;63509;45.250;38.102;2023-11-19T11:04:24;8.67;78.99
74946;HTU21D;63509;45.250;38.102;2023-11-19T11:06:57;8.71;79.01
74946;HTU21D;63509;45.250;38.102;2023-11-19T11:09:26;8.75;79.01
74946;HTU21D;63509;45.250;38.102;2023-11-19T11:11:54;8.78;79.00
74946;HTU21D;63509;45.250;38.102;2023-11-19T11:14:24;8.83;78.99
74946;HTU21D;63509;45.250;38.102;2023-11-19T11:16:59;8.86;78.92
74946;HTU21D;63509;45.250;38.102;2023-11-19T11:19:40;8.88;78.89
74946;HTU21D;63509;45.250;38.102;2023-11-19T11:29:47;8.91;78.92
74946;HTU21D;63509;45.250;38.102;2023-11-19T11:32:22;8.91;78.97
74946;HTU21D;63509;45.250;38.102;2023-11-19T11:34:58;8.93;78.98
74946;HTU21D;63509;45.250;38.102;2023-11-19T11:37:46;8.95;79.03
74946;HTU21D;63509;45.250;38.102;2023-11-19T11:40:14;8.95;79.00
74946;HTU21D;63509;45.250;38.102;2023-11-19T11:42:42;8.96;79.04
74946;HTU21D;63509;45.250;38.102;2023-11-19T11:50:10;9.03;79.00
74946;HTU21D;63509;45.250;38.102;2023-11-19T11:57:57;9.04;79.04
74946;HTU21D;63509;45.250;38.102;2023-11-19T12:00:37;9.05;79.13
74946;HTU21D;63509;45.250;38.102;2023-11-19T12:03:48;9.08;79.24
74946;HTU21D;63509;45.250;38.102;2023-11-19T12:06:04;9.18;79.29
74946;HTU21D;63509;45.250;38.102;2023-11-19T12:08:30;9.24;79.33
74946;HTU21D;63509;45.250;38.102;2023-11-19T12:10:58;9.34;79.41
74946;HTU21D;63509;45.250;38.102;2023-11-19T12:13:52;9.45;79.44
74946;HTU21D;63509;45.250;38.102;2023-11-19T12:16:22;9.49;79.50
74946;HTU21D;63509;45.250;38.102;2023-11-19T12:18:48;9.49;79.46
74946;HTU21D;63509;45.250;38.102;2023-11-19T12:21:33;9.51;79.45
74946;HTU21D;63509;45.250;38.102;2023-11-19T12:24:06;9.53;79.42
74946;HTU21D;63509;45.250;38.102;2023-11-19T12:26:33;9.54;79.33
74946;HTU21D;63509;45.250;38.102;2023-11-19T12:29:00;9.55;79.27
74946;HTU21D;63509;45.250;38.102;2023-11-19T12:31:29;9.54;79.30
74946;HTU21D;63509;45.250;38.102;2023-11-19T12:34:01;9.54;79.34
74946;HTU21D;63509;45.250;38.102;2023-11-19T12:36:32;9.55;79.37
74946;HTU21D;63509;45.250;38.102;2023-11-19T12:38:58;9.59;79.41
74946;HTU21D;63509;45.250;38.102;2023-11-19T12:41:24;9.60;79.41
74946;HTU21D;63509;45.250;38.102;2023-11-19T12:43:50;9.60;79.43
74946;HTU21D;63509;45.250;38.102;2023-11-19T12:46:23;9.62;79.43
74946;HTU21D;63509;45.250;38.102;2023-11-19T12:48:50;9.63;79.46
74946;HTU21D;63509;45.250;38.102;2023-11-19T12:51:17;9.63;79.51
74946;HTU21D;63509;45.250;38.102;2023-11-19T12:53:50;9.63;79.57
74946;HTU21D;63509;45.250;38.102;2023-11-19T12:56:18;9.63;79.57
74946;HTU21D;63509;45.250;38.102;2023-11-19T12:58:45;9.65;79.58
74946;HTU21D;63509;45.250;38.102;2023-11-19T13:01:16;9.65;79.62
74946;HTU21D;63509;45.250;38.102;2023-11-19T13:03:42;9.65;79.62
74946;HTU21D;63509;45.250;38.102;2023-11-19T13:06:11;9.67;79.65
74946;HTU21D;63509;45.250;38.102;2023-11-19T13:08:43;9.68;79.68
74946;HTU21D;63509;45.250;38.102;2023-11-19T13:11:11;9.69;79.67
74946;HTU21D;63509;45.250;38.102;2023-11-19T13:14:17;9.71;79.65
74946;HTU21D;63509;45.250;38.102;2023-11-19T13:16:43;9.74;79.66
74946;HTU21D;63509;45.250;38.102;2023-11-19T13:19:11;9.75;79.66
74946;HTU21D;63509;45.250;38.102;2023-11-19T13:21:38;9.74;79.64
74946;HTU21D;63509;45.250;38.102;2023-11-19T13:24:06;9.76;79.63
74946;HTU21D;63509;45.250;38.102;2023-11-19T13:26:32;9.77;79.61
74946;HTU21D;63509;45.250;38.102;2023-11-19T13:28:58;9.75;79.58
74946;HTU21D;63509;45.250;38.102;2023-11-19T13:31:25;9.75;79.60
74946;HTU21D;63509;45.250;38.102;2023-11-19T13:33:52;9.72;79.62
74946;HTU21D;63509;45.250;38.102;2023-11-19T13:36:18;9.69;79.62
74946;HTU21D;63509;45.250;38.102;2023-11-19T13:38:48;9.69;79.67
74946;HTU21D;63509;45.250;38.102;2023-11-19T13:41:14;9.70;79.69
74946;HTU21D;63509;45.250;38.102;2023-11-19T13:43:40;9.71;79.69
74946;HTU21D;63509;45.250;38.102;2023-11-19T13:46:07;9.72;79.69
74946;HTU21D;63509;45.250;38.102;2023-11-19T13:48:35;9.72;79.67
74946;HTU21D;63509;45.250;38.102;2023-11-19T13:51:05;9.76;79.65
74946;HTU21D;63509;45.250;38.102;2023-11-19T13:53:31;9.75;79.60
74946;HTU21D;63509;45.250;38.102;2023-11-19T13:56:01;9.76;79.61
74946;HTU21D;63509;45.250;38.102;2023-11-19T13:58:29;9.77;79.58
74946;HTU21D;63509;45.250;38.102;2023-11-19T14:00:56;9.76;79.50
74946;HTU21D;63509;45.250;38.102;2023-11-19T14:03:23;9.75;79.45
74946;HTU21D;63509;45.250;38.102;2023-11-19T14:05:50;9.72;79.51
74946;HTU21D;63509;45.250;38.102;2023-11-19T14:08:18;9.74;79.52
74946;HTU21D;63509;45.250;38.102;2023-11-19T14:10:46;9.71;79.47
74946;HTU21D;63509;45.250;38.102;2023-11-19T14:13:16;9.70;79.43
74946;HTU21D;63509;45.250;38.102;2023-11-19T14:15:42;9.68;79.47
74946;HTU21D;63509;45.250;38.102;2023-11-19T14:18:11;9.67;79.51
74946;HTU21D;63509;45.250;38.102;2023-11-19T14:20:37;9.66;79.53
74946;HTU21D;63509;45.250;38.102;2023-11-19T14:23:07;9.65;79.51
74946;HTU21D;63509;45.250;38.102;2023-11-19T14:25:35;9.64;79.48
74946;HTU21D;63509;45.250;38.102;2023-11-19T14:28:01;9.64;79.47
74946;HTU21D;63509;45.250;38.102;2023-11-19T14:30:28;9.62;79.47
74946;HTU21D;63509;45.250;38.102;2023-11-19T14:33:02;9.60;79.45
74946;HTU21D;63509;45.250;38.102;2023-11-19T14:35:40;9.57;79.46
74946;HTU21D;63509;45.250;38.102;2023-11-19T14:38:10;9.54;79.48
74946;HTU21D;63509;45.250;38.102;2023-11-19T14:40:47;9.53;79.49
74946;HTU21D;63509;45.250;38.102;2023-11-19T14:43:14;9.51;79.48
74946;HTU21D;63509;45.250;38.102;2023-11-19T14:45:41;9.50;79.49
74946;HTU21D;63509;45.250;38.102;2023-11-19T14:48:07;9.51;79.49
74946;HTU21D;63509;45.250;38.102;2023-11-19T14:50:33;9.48;79.50
74946;HTU21D;63509;45.250;38.102;2023-11-19T14:53:00;9.48;79.51
74946;HTU21D;63509;45.250;38.102;2023-11-19T14:55:29;9.48;79.51
74946;HTU21D;63509;45.250;38.102;2023-11-19T14:57:58;9.48;79.53
74946;HTU21D;63509;45.250;38.102;2023-11-19T15:00:27;9.48;79.52
74946;HTU21D;63509;45.250;38.102;2023-11-19T15:03:00;9.47;79.60
74946;HTU21D;63509;45.250;38.102;2023-11-19T15:05:27;9.49;79.65
74946;HTU21D;63509;45.250;38.102;2023-11-19T15:07:58;9.50;79.67
74946;HTU21D;63509;45.250;38.102;2023-11-19T15:10:24;9.52;79.71
74946;HTU21D;63509;45.250;38.102;2023-11-19T15:12:51;9.53;79.75
74946;HTU21D;63509;45.250;38.102;2023-11-19T15:15:20;9.54;79.73
74946;HTU21D;63509;45.250;38.102;2023-11-19T15:17:50;9.55;79.74
74946;HTU21D;63509;45.250;38.102;2023-11-19T15:20:17;9.55;79.75
74946;HTU21D;63509;45.250;38.102;2023-11-19T15:22:44;9.56;79.76
74946;HTU21D;63509;45.250;38.102;2023-11-19T15:25:10;9.54;79.79
74946;HTU21D;63509;45.250;38.102;2023-11-19T15:27:37;9.55;79.80
74946;HTU21D;63509;45.250;38.102;2023-11-19T15:30:04;9.55;79.78
74946;HTU21D;63509;45.250;38.102;2023-11-19T15:32:31;9.56;79.75
74946;HTU21D;63509;45.250;38.102;2023-11-19T15:34:58;9.56;79.75
74946;HTU21D;63509;45.250;38.102;2023-11-19T15:37:27;9.55;79.78
74946;HTU21D;63509;45.250;38.102;2023-11-19T15:39:55;9.54;79.81